createdAt,value
2022-11-27T00:00:29.295Z,11.50
2022-11-27T00:03:32.007Z,11.17
2022-11-27T00:06:36.771Z,11.77
2022-11-27T00:09:39.842Z,12.43
2022-11-27T00:12:42.900Z,10.55
2022-11-27T00:15:45.602Z,11.13
2022-11-27T00:18:48.256Z,10.20
2022-11-27T00:21:52.305Z,12.23
2022-11-27T00:24:55.231Z,11.60
2022-11-27T00:27:57.896Z,12.88
2022-11-27T00:31:01.017Z,12.73
2022-11-27T00:34:07.751Z,11.90
2022-11-27T00:37:12.215Z,12.93
2022-11-27T00:40:15.548Z,12.83
2022-11-27T00:43:18.211Z,12.25
2022-11-27T00:46:27.824Z,11.90
2022-11-27T00:49:32.177Z,11.83
2022-11-27T00:52:36.207Z,12.25
2022-11-27T00:55:38.975Z,11.47
2022-11-27T00:58:41.571Z,11.47
2022-11-27T01:01:45.029Z,11.20
2022-11-27T01:04:48.022Z,11.02
2022-11-27T01:07:52.129Z,10.77
2022-11-27T01:10:56.570Z,11.17
2022-11-27T01:14:01.421Z,10.47
2022-11-27T01:17:04.748Z,10.30
2022-11-27T01:20:08.771Z,11.27
2022-11-27T01:23:12.775Z,11.27
2022-11-27T01:26:15.549Z,11.27
2022-11-27T01:29:18.199Z,10.63
2022-11-27T01:32:20.751Z,9.60
2022-11-27T01:35:23.399Z,8.90
2022-11-27T01:38:28.163Z,10.17
2022-11-27T01:41:32.376Z,10.10
2022-11-27T01:44:50.290Z,9.37
2022-11-27T01:47:55.026Z,9.13
2022-11-27T01:50:57.731Z,9.90
2022-11-27T01:54:01.860Z,9.57
2022-11-27T01:57:08.200Z,10.00
2022-11-27T02:00:14.103Z,9.63
2022-11-27T02:03:16.988Z,9.50
2022-11-27T02:06:19.823Z,9.47
2022-11-27T02:09:23.852Z,9.83
2022-11-27T02:12:28.383Z,9.37
2022-11-27T02:15:36.444Z,9.10
2022-11-27T02:18:43.706Z,8.40
2022-11-27T02:21:49.474Z,8.20
2022-11-27T02:24:57.742Z,8.87
2022-11-27T02:28:14.651Z,8.33
2022-11-27T02:31:23.739Z,8.13
2022-11-27T02:34:29.366Z,8.47
2022-11-27T02:37:35.010Z,8.07
2022-11-27T02:40:40.244Z,7.53
2022-11-27T02:43:46.239Z,8.73
2022-11-27T02:46:50.996Z,8.27
2022-11-27T02:49:57.013Z,7.80
2022-11-27T02:53:02.863Z,7.37
2022-11-27T02:56:08.193Z,8.30
2022-11-27T02:59:13.349Z,9.33
2022-11-27T03:02:20.114Z,10.03
2022-11-27T03:05:24.495Z,8.57
2022-11-27T03:08:32.081Z,9.47
2022-11-27T03:11:35.069Z,9.87
2022-11-27T03:14:38.890Z,8.85
2022-11-27T03:17:53.182Z,8.53
2022-11-27T03:21:02.255Z,9.70
2022-11-27T03:24:05.624Z,10.00
2022-11-27T03:27:08.385Z,8.18
2022-11-27T03:30:12.267Z,8.57
2022-11-27T03:36:20.668Z,7.28
2022-11-27T03:39:23.738Z,7.53
2022-11-27T03:42:30.421Z,7.82
2022-11-27T03:45:36.753Z,7.23
2022-11-27T03:48:44.990Z,7.67
2022-11-27T03:51:52.521Z,8.30
2022-11-27T03:55:00.878Z,7.10
2022-11-27T03:58:06.784Z,7.90
2022-11-27T04:01:11.774Z,8.23
2022-11-27T04:04:15.995Z,7.70
2022-11-27T04:07:18.727Z,7.60
2022-11-27T04:10:21.392Z,7.10
2022-11-27T04:13:24.025Z,6.97
2022-11-27T04:16:26.734Z,7.90
2022-11-27T04:19:30.725Z,7.20
2022-11-27T04:25:35.890Z,6.70
2022-11-27T04:28:38.619Z,6.87
2022-11-27T04:31:41.292Z,8.80
2022-11-27T04:34:45.505Z,7.17
2022-11-27T04:37:48.111Z,7.43
2022-11-27T04:40:52.591Z,7.73
2022-11-27T04:43:55.289Z,7.97
2022-11-27T04:46:58.006Z,7.83
2022-11-27T04:50:02.640Z,7.33
2022-11-27T04:53:05.367Z,7.97
2022-11-27T04:56:08.429Z,9.93
2022-11-27T04:59:11.005Z,8.30
2022-11-27T05:02:13.534Z,8.33
2022-11-27T05:05:20.253Z,8.70
2022-11-27T05:08:22.983Z,9.17
2022-11-27T05:11:25.582Z,8.43
2022-11-27T05:14:29.384Z,7.87
2022-11-27T05:17:31.951Z,8.60
2022-11-27T05:20:36.006Z,8.23
2022-11-27T05:23:38.635Z,8.07
2022-11-27T05:26:41.391Z,7.80
2022-11-27T05:29:43.957Z,8.73
2022-11-27T05:32:46.620Z,7.33
2022-11-27T05:35:50.491Z,7.53
2022-11-27T05:41:55.526Z,7.90
2022-11-27T05:44:58.722Z,8.07
2022-11-27T05:48:01.396Z,7.95
2022-11-27T05:51:06.066Z,7.53
2022-11-27T05:54:08.727Z,8.43
2022-11-27T05:57:11.616Z,7.10
2022-11-27T06:00:15.670Z,8.07
2022-11-27T06:03:18.632Z,9.23
2022-11-27T06:06:22.757Z,8.50
2022-11-27T06:09:25.737Z,7.93
2022-11-27T06:12:28.438Z,8.77
2022-11-27T06:15:31.102Z,9.07
2022-11-27T06:18:33.736Z,8.57
2022-11-27T06:21:38.111Z,7.37
2022-11-27T06:24:41.079Z,8.10
2022-11-27T06:27:44.088Z,8.60
2022-11-27T06:30:46.672Z,7.47
2022-11-27T06:33:50.618Z,6.93
2022-11-27T06:36:54.636Z,7.67
2022-11-27T06:39:57.303Z,7.30
2022-11-27T06:42:59.955Z,7.17
2022-11-27T06:46:03.451Z,7.63
2022-11-27T06:49:06.444Z,8.05
2022-11-27T06:52:10.462Z,7.60
2022-11-27T06:55:13.058Z,6.90
2022-11-27T06:58:15.753Z,7.17
2022-11-27T07:01:18.871Z,7.30
2022-11-27T07:04:21.570Z,8.05
2022-11-27T07:07:25.689Z,7.73
2022-11-27T07:10:28.398Z,7.57
2022-11-27T07:13:31.232Z,7.67
2022-11-27T07:16:35.962Z,7.93
2022-11-27T07:19:38.694Z,8.67
2022-11-27T07:22:43.174Z,8.50
2022-11-27T07:25:45.891Z,8.50
2022-11-27T07:28:48.851Z,8.03
2022-11-27T07:31:51.854Z,7.88
2022-11-27T07:34:54.565Z,8.70
2022-11-27T07:37:58.714Z,7.97
2022-11-27T07:41:02.045Z,8.60
2022-11-27T07:44:04.922Z,7.80
2022-11-27T07:47:07.682Z,8.05
2022-11-27T07:50:11.694Z,7.50
2022-11-27T07:53:15.777Z,9.37
2022-11-27T07:56:19.180Z,12.27
2022-11-27T07:59:21.956Z,9.82
2022-11-27T08:02:24.692Z,7.73
2022-11-27T08:05:27.400Z,7.73
2022-11-27T08:08:31.324Z,8.37
2022-11-27T08:14:38.316Z,7.32
2022-11-27T08:17:41.318Z,7.75
2022-11-27T08:20:43.948Z,8.57
2022-11-27T08:23:48.034Z,12.13
2022-11-27T08:26:52.141Z,12.37
2022-11-27T08:29:54.901Z,9.70
2022-11-27T08:32:57.509Z,8.93
2022-11-27T08:36:00.690Z,8.13
2022-11-27T08:39:04.855Z,8.93
2022-11-27T08:42:07.505Z,9.07
2022-11-27T08:45:11.620Z,8.30
2022-11-27T08:48:14.168Z,8.83
2022-11-27T08:51:17.406Z,10.07
2022-11-27T08:54:21.477Z,8.20
2022-11-27T08:57:24.480Z,9.37
2022-11-27T09:00:28.230Z,7.57
2022-11-27T09:06:34.887Z,8.27
2022-11-27T09:09:38.944Z,8.57
2022-11-27T09:12:43.567Z,8.60
2022-11-27T09:15:46.334Z,7.23
2022-11-27T09:18:51.390Z,6.67
2022-11-27T09:21:54.064Z,6.53
2022-11-27T09:24:58.235Z,6.80
2022-11-27T09:28:01.011Z,6.63
2022-11-27T09:31:08.279Z,6.77
2022-11-27T09:34:11.961Z,6.70
2022-11-27T09:37:14.594Z,6.90
2022-11-27T09:40:18.800Z,6.90
2022-11-27T09:43:28.145Z,6.93
2022-11-27T09:46:33.317Z,6.17
2022-11-27T09:49:39.350Z,6.60
2022-11-27T09:52:44.273Z,6.73
2022-11-27T09:55:51.111Z,6.23
2022-11-27T09:58:57.419Z,6.67
2022-11-27T10:02:00.208Z,6.70
2022-11-27T10:05:13.998Z,7.05
2022-11-27T10:08:31.408Z,7.17
2022-11-27T10:11:37.693Z,6.73
2022-11-27T10:15:00.753Z,6.70
2022-11-27T10:18:07.292Z,7.37
2022-11-27T10:21:16.671Z,6.23
2022-11-27T10:24:24.509Z,5.90
2022-11-27T10:27:34.230Z,6.97
2022-11-27T10:30:40.445Z,7.03
2022-11-27T10:33:45.095Z,6.63
2022-11-27T10:37:24.864Z,7.60
2022-11-27T10:40:31.933Z,7.73
2022-11-27T10:43:36.084Z,7.43
2022-11-27T10:46:40.339Z,6.93
2022-11-27T10:49:43.682Z,7.20
2022-11-27T10:52:52.472Z,8.55
2022-11-27T10:56:03.092Z,7.63
2022-11-27T10:59:10.537Z,6.83
2022-11-27T11:02:31.352Z,7.57
2022-11-27T11:06:04.134Z,7.03
2022-11-27T11:09:03.000Z,6.53
2022-11-27T11:12:09.138Z,7.13
2022-11-27T11:15:14.564Z,6.50
2022-11-27T11:18:18.587Z,6.60
2022-11-27T11:21:27.494Z,5.83
2022-11-27T11:24:31.389Z,5.83
2022-11-27T11:27:34.030Z,5.77
2022-11-27T11:30:39.522Z,5.47
2022-11-27T11:33:51.236Z,5.53
2022-11-27T11:36:57.844Z,5.47
2022-11-27T11:40:02.244Z,6.50
2022-11-27T11:43:10.111Z,5.53
2022-11-27T11:46:22.576Z,5.17
2022-11-27T11:49:26.295Z,5.40
2022-11-27T11:55:46.889Z,4.27
2022-11-27T11:58:56.485Z,3.80
2022-11-27T12:02:18.191Z,3.57
2022-11-27T12:05:26.815Z,3.03
2022-11-27T12:08:40.809Z,4.03
2022-11-27T12:14:51.905Z,2.85
2022-11-27T12:18:01.028Z,4.07
2022-11-27T12:21:12.638Z,4.00
2022-11-27T12:24:24.349Z,4.00
2022-11-27T12:27:34.582Z,4.40
2022-11-27T12:30:43.236Z,4.83
2022-11-27T12:33:58.494Z,4.50
2022-11-27T12:37:14.108Z,4.70
2022-11-27T12:40:30.297Z,4.00
2022-11-27T12:43:35.507Z,4.23
2022-11-27T12:46:44.334Z,4.67
2022-11-27T12:49:49.988Z,3.87
2022-11-27T12:53:00.145Z,4.10
2022-11-27T12:56:09.661Z,2.90
2022-11-27T12:59:15.614Z,3.37
2022-11-27T13:02:28.396Z,3.77
2022-11-27T13:05:35.956Z,3.60
2022-11-27T13:08:51.008Z,3.10
2022-11-27T13:11:55.559Z,2.30
2022-11-27T13:15:02.629Z,3.17
2022-11-27T13:18:13.370Z,3.23
2022-11-27T13:21:22.759Z,3.40
2022-11-27T13:24:27.227Z,2.40
2022-11-27T13:27:31.429Z,2.80
2022-11-27T13:30:37.053Z,2.40
2022-11-27T13:33:42.108Z,3.77
2022-11-27T13:36:48.333Z,3.80
2022-11-27T13:39:51.054Z,3.63
2022-11-27T13:42:56.464Z,3.10
2022-11-27T13:46:05.199Z,5.37
2022-11-27T13:49:08.187Z,3.77
2022-11-27T13:52:14.024Z,3.92
2022-11-27T13:55:25.060Z,3.37
2022-11-27T13:58:32.601Z,3.30
2022-11-27T14:01:35.356Z,4.27
2022-11-27T14:04:55.591Z,4.47
2022-11-27T14:08:00.781Z,4.67
2022-11-27T14:11:06.516Z,4.23
2022-11-27T14:14:16.253Z,4.30
2022-11-27T14:17:27.310Z,3.77
2022-11-27T14:20:31.660Z,4.17
2022-11-27T14:23:38.025Z,3.83
2022-11-27T14:26:42.335Z,4.43
2022-11-27T14:29:45.235Z,3.93
2022-11-27T14:32:49.017Z,3.97
2022-11-27T14:38:56.155Z,3.87
2022-11-27T14:42:00.367Z,4.60
2022-11-27T14:45:05.130Z,3.70
2022-11-27T14:48:07.988Z,3.57
2022-11-27T14:51:15.542Z,3.30
2022-11-27T14:54:23.600Z,2.77
2022-11-27T14:57:27.619Z,3.00
2022-11-27T15:00:32.420Z,3.27
2022-11-27T15:03:35.597Z,3.90
2022-11-27T15:06:41.741Z,5.55
2022-11-27T15:09:48.179Z,4.57
2022-11-27T15:12:51.622Z,4.90
2022-11-27T15:15:57.223Z,4.85
2022-11-27T15:19:02.503Z,7.10
2022-11-27T15:22:05.824Z,4.73
2022-11-27T15:25:31.098Z,10.48
2022-11-27T15:28:36.704Z,9.10
2022-11-27T15:31:39.728Z,5.57
2022-11-27T15:34:42.749Z,5.72
2022-11-27T15:37:45.590Z,5.25
2022-11-27T15:40:59.236Z,6.10
2022-11-27T15:44:03.198Z,5.72
2022-11-27T15:47:07.380Z,6.30
2022-11-27T15:50:15.583Z,7.57
2022-11-27T15:53:18.678Z,6.70
2022-11-27T15:56:22.738Z,5.05
2022-11-27T15:59:27.254Z,4.50
2022-11-27T16:02:31.209Z,4.83
2022-11-27T16:05:34.273Z,4.70
2022-11-27T16:08:37.124Z,5.10
2022-11-27T16:11:41.579Z,4.72
2022-11-27T16:14:44.340Z,4.87
2022-11-27T16:17:47.090Z,6.20
2022-11-27T16:20:49.833Z,4.70
2022-11-27T16:23:52.746Z,4.80
2022-11-27T16:26:57.257Z,5.18
2022-11-27T16:29:59.888Z,4.83
2022-11-27T16:33:02.888Z,4.57
2022-11-27T16:36:06.971Z,5.50
2022-11-27T16:39:09.851Z,5.23
2022-11-27T16:42:14.005Z,6.78
2022-11-27T16:45:16.632Z,5.73
2022-11-27T16:48:19.391Z,7.27
2022-11-27T16:51:23.734Z,6.50
2022-11-27T16:54:26.564Z,9.77
2022-11-27T16:57:30.667Z,6.18
2022-11-27T17:00:33.357Z,7.00
2022-11-27T17:03:36.274Z,7.23
2022-11-27T17:06:39.886Z,7.13
2022-11-27T17:09:43.002Z,7.60
2022-11-27T17:12:47.091Z,5.38
2022-11-27T17:15:49.730Z,6.57
2022-11-27T17:18:52.444Z,4.23
2022-11-27T17:21:55.436Z,4.23
2022-11-27T17:24:58.648Z,3.42
2022-11-27T17:28:02.645Z,4.10
2022-11-27T17:31:10.461Z,4.13
2022-11-27T17:34:14.643Z,4.67
2022-11-27T17:37:17.687Z,4.13
2022-11-27T17:40:20.500Z,4.28
2022-11-27T17:43:25.660Z,4.32
2022-11-27T17:46:30.507Z,4.60
2022-11-27T17:49:33.297Z,4.33
2022-11-27T17:52:36.012Z,3.83
2022-11-27T17:55:38.869Z,3.97
2022-11-27T17:58:43.455Z,3.60
2022-11-27T18:01:48.359Z,3.50
2022-11-27T18:04:51.040Z,3.80
2022-11-27T18:07:54.393Z,4.00
2022-11-27T18:10:57.026Z,4.90
2022-11-27T18:14:00.987Z,4.97
2022-11-27T18:17:05.492Z,5.73
2022-11-27T18:20:09.175Z,4.87
2022-11-27T18:23:12.255Z,4.70
2022-11-27T18:26:17.311Z,5.40
2022-11-27T18:29:21.685Z,4.23
2022-11-27T18:32:24.497Z,4.67
2022-11-27T18:35:27.386Z,4.70
2022-11-27T18:38:31.570Z,4.68
2022-11-27T18:41:34.736Z,4.03
2022-11-27T18:44:44.713Z,3.97
2022-11-27T18:47:47.940Z,4.17
2022-11-27T18:50:50.651Z,4.33
2022-11-27T18:53:54.350Z,4.70
2022-11-27T19:00:01.216Z,3.80
2022-11-27T19:03:04.149Z,4.40
2022-11-27T19:06:08.633Z,3.72
2022-11-27T19:09:12.320Z,3.67
2022-11-27T19:15:19.680Z,4.13
2022-11-27T19:18:22.507Z,4.53
2022-11-27T19:21:27.678Z,4.35
2022-11-27T19:24:30.297Z,4.67
2022-11-27T19:27:32.868Z,4.40
2022-11-27T19:30:38.498Z,4.67
2022-11-27T19:33:41.739Z,5.10
2022-11-27T19:36:44.607Z,5.38
2022-11-27T19:39:47.405Z,4.55
2022-11-27T19:42:55.636Z,5.43
2022-11-27T19:46:03.872Z,4.77
2022-11-27T19:49:08.217Z,4.83
2022-11-27T19:52:10.772Z,5.13
2022-11-27T19:55:13.357Z,5.43
2022-11-27T19:58:16.122Z,5.40
2022-11-27T20:01:20.723Z,6.00
2022-11-27T20:04:23.740Z,6.00
2022-11-27T20:07:26.416Z,5.75
2022-11-27T20:10:29.255Z,6.23
2022-11-27T20:13:31.813Z,6.65
2022-11-27T20:16:37.307Z,7.60
2022-11-27T20:19:40.314Z,7.33
2022-11-27T20:22:43.446Z,6.95
2022-11-27T20:25:49.380Z,6.47
2022-11-27T20:28:53.514Z,6.20
2022-11-27T20:31:57.791Z,5.73
2022-11-27T20:35:00.773Z,5.60
2022-11-27T20:38:03.819Z,5.45
2022-11-27T20:41:07.876Z,5.50
2022-11-27T20:44:11.542Z,5.37
2022-11-27T20:50:18.449Z,5.68
2022-11-27T20:53:21.284Z,5.68
2022-11-27T20:56:24.009Z,5.70
2022-11-27T20:59:26.642Z,5.87
2022-11-27T21:02:30.792Z,7.03
2022-11-27T21:05:33.734Z,6.07
2022-11-27T21:08:36.604Z,5.97
2022-11-27T21:11:39.393Z,5.60
2022-11-27T21:14:42.238Z,6.83
2022-11-27T21:17:46.307Z,5.95
2022-11-27T21:20:48.922Z,5.97
2022-11-27T21:23:51.785Z,6.07
2022-11-27T21:26:54.495Z,5.78
2022-11-27T21:29:57.266Z,6.17
2022-11-27T21:33:01.780Z,6.63
2022-11-27T21:36:05.405Z,7.33
2022-11-27T21:39:10.395Z,7.22
2022-11-27T21:42:13.261Z,7.20
2022-11-27T21:45:16.147Z,6.65
2022-11-27T21:48:20.733Z,6.55
2022-11-27T21:51:23.829Z,7.30
2022-11-27T21:54:26.647Z,7.40
2022-11-27T21:57:29.518Z,6.95
2022-11-27T22:00:32.402Z,7.33
2022-11-27T22:03:41.111Z,6.45
2022-11-27T22:06:45.481Z,9.53
2022-11-27T22:09:48.213Z,10.30
2022-11-27T22:12:50.820Z,7.23
2022-11-27T22:15:53.507Z,6.00
2022-11-27T22:18:58.805Z,6.03
2022-11-27T22:22:01.604Z,6.20
2022-11-27T22:25:04.891Z,5.97
2022-11-27T22:28:07.516Z,5.10
2022-11-27T22:31:11.137Z,5.77
2022-11-27T22:37:18.055Z,6.55
2022-11-27T22:40:21.805Z,5.90
2022-11-27T22:43:24.503Z,5.78
2022-11-27T22:46:29.167Z,6.30
2022-11-27T22:49:33.245Z,6.17
2022-11-27T22:52:35.958Z,6.37
2022-11-27T22:55:38.711Z,5.73
2022-11-27T22:58:42.105Z,5.97
2022-11-27T23:01:44.845Z,6.28
2022-11-27T23:04:48.894Z,6.23
2022-11-27T23:07:51.923Z,5.87
2022-11-27T23:10:54.620Z,4.97
2022-11-27T23:13:58.532Z,4.93
2022-11-27T23:17:01.181Z,5.40
2022-11-27T23:20:06.547Z,5.57
2022-11-27T23:23:10.028Z,5.57
2022-11-27T23:26:18.084Z,5.30
2022-11-27T23:29:21.081Z,5.37
2022-11-27T23:32:23.764Z,5.87
2022-11-27T23:35:28.855Z,5.67
2022-11-27T23:38:31.549Z,5.30
2022-11-27T23:41:34.338Z,5.43
2022-11-27T23:44:37.254Z,5.63
2022-11-27T23:47:40.271Z,5.90
2022-11-27T23:50:44.586Z,5.30
2022-11-27T23:53:47.739Z,5.77
2022-11-27T23:56:52.650Z,5.63
2022-11-27T23:59:55.366Z,5.53
